Cebu City, Philippines
Current Conditions -  °F | °C
As of 6:00 AM on Tuesday 25 Nov 2014 (Local Time) from RPVM Reporting Station
Overcast Overcast  
Wind Chill: 79°   Ceiling: 9000
Heat Index: 82°   Visibility: 6mi
Dew Point: 75°   Wind: 5mph
Humidity: 89%   Direction: 20°NNE
Pressure: 29.8"   Gusts: NA
Location:  10.3°N, 123.9°E
Report Text: RPVM 242200Z 02004KT 9999 FEW020 OVC090 26/24 Q1009 RERA RMK A2980
Loading
Personal Weather Stations






























Interactive Weather Map New forecast layout! Learn more

10-Day Weather Forecast

Advertisements
Track Severe Weather on mobile